Time,TemperatureF,DewpointF,PressureIn,WindDirection,WindDirectionDegrees,WindSpeedMPH,WindSpeedGustMPH,Humidity,HourlyPrecipIn,Conditions,Clouds,dailyrainin,SoftwareType,DateUTC
2013-09-07 00:00:00,79.3,72.6,29.93,North,7,0.0,0.0,80,0.00,,,0.00,WUHU216DAVISVP2,2013-09-07 05:00:00,
2013-09-07 00:17:00,79.0,72.5,29.93,SE,126,0.0,0.0,80,0.00,,,0.00,WUHU216DAVISVP2,2013-09-07 05:17:00,
2013-09-07 00:30:00,78.8,72.5,29.93,North,7,0.0,0.0,81,0.00,,,0.00,WUHU216DAVISVP2,2013-09-07 05:30:00,
2013-09-07 00:47:00,78.5,72.7,29.94,SE,126,0.0,0.0,82,0.00,,,0.00,WUHU216DAVISVP2,2013-09-07 05:47:00,
2013-09-07 01:00:00,78.2,72.6,29.93,ESE,120,0.0,1.0,83,0.00,,,0.00,WUHU216DAVISVP2,2013-09-07 06:00:00,
2013-09-07 01:17:00,77.9,72.5,29.93,SE,126,0.0,0.0,83,0.00,,,0.00,WUHU216DAVISVP2,2013-09-07 06:17:00,
2013-09-07 01:30:00,77.7,72.5,29.94,North,7,0.0,0.0,84,0.00,,,0.00,WUHU216DAVISVP2,2013-09-07 06:30:00,
2013-09-07 01:47:00,77.5,72.8,29.94,SE,126,0.0,0.0,85,0.00,,,0.00,WUHU216DAVISVP2,2013-09-07 06:47:00,
2013-09-07 02:00:00,77.1,72.2,29.94,North,7,0.0,0.0,85,0.00,,,0.00,WUHU216DAVISVP2,2013-09-07 07:00:00,
2013-09-07 02:17:00,77.0,72.6,29.93,SE,126,0.0,0.0,86,0.00,,,0.00,WUHU216DAVISVP2,2013-09-07 07:17:00,
2013-09-07 02:30:00,76.8,72.6,29.93,North,7,0.0,0.0,87,0.00,,,0.00,WUHU216DAVISVP2,2013-09-07 07:30:00,
2013-09-07 02:47:00,76.7,72.7,29.93,SE,126,0.0,0.0,87,0.00,,,0.00,WUHU216DAVISVP2,2013-09-07 07:47:00,
2013-09-07 03:00:00,76.8,73.0,29.93,North,7,0.0,0.0,88,0.00,,,0.00,WUHU216DAVISVP2,2013-09-07 08:00:00,
2013-09-07 03:17:00,77.2,73.5,29.93,SE,126,0.0,0.0,88,0.00,,,0.00,WUHU216DAVISVP2,2013-09-07 08:17:00,
2013-09-07 03:30:00,77.5,73.3,29.93,North,7,0.0,0.0,87,0.00,,,0.00,WUHU216DAVISVP2,2013-09-07 08:30:00,
2013-09-07 03:47:00,77.5,73.4,29.93,SE,126,0.0,0.0,87,0.00,,,0.00,WUHU216DAVISVP2,2013-09-07 08:47:00,
2013-09-07 04:00:00,77.4,73.6,29.93,North,7,0.0,0.0,88,0.00,,,0.00,WUHU216DAVISVP2,2013-09-07 09:00:00,
2013-09-07 04:17:00,77.2,73.1,29.93,SE,126,0.0,0.0,87,0.00,,,0.00,WUHU216DAVISVP2,2013-09-07 09:17:00,
2013-09-07 04:30:00,76.9,73.1,29.93,North,7,0.0,0.0,88,0.00,,,0.00,WUHU216DAVISVP2,2013-09-07 09:30:00,
2013-09-07 04:47:00,76.6,73.2,29.93,SE,126,0.0,0.0,89,0.00,,,0.00,WUHU216DAVISVP2,2013-09-07 09:47:00,
2013-09-07 05:00:00,76.3,73.1,29.93,North,7,0.0,0.0,90,0.00,,,0.00,WUHU216DAVISVP2,2013-09-07 10:00:00,
2013-09-07 05:17:00,76.0,72.9,29.93,SE,126,0.0,0.0,90,0.00,,,0.00,WUHU216DAVISVP2,2013-09-07 10:17:00,
2013-09-07 05:30:00,75.7,72.9,29.93,North,7,0.0,0.0,91,0.00,,,0.00,WUHU216DAVISVP2,2013-09-07 10:30:00,
2013-09-07 05:47:00,75.3,72.6,29.93,SE,126,0.0,0.0,91,0.00,,,0.00,WUHU216DAVISVP2,2013-09-07 10:47:00,
2013-09-07 06:00:00,75.2,72.4,29.94,ENE,75,0.0,2.0,91,0.00,,,0.00,WUHU216DAVISVP2,2013-09-07 11:00:00,
2013-09-07 06:17:00,75.1,72.4,29.94,East,83,0.0,2.0,91,0.00,,,0.00,WUHU216DAVISVP2,2013-09-07 11:17:00,
2013-09-07 06:30:00,74.8,72.0,29.94,ENE,75,0.0,1.0,91,0.00,,,0.00,WUHU216DAVISVP2,2013-09-07 11:30:00,
2013-09-07 06:47:00,74.5,72.1,29.94,East,83,0.0,0.0,92,0.00,,,0.00,WUHU216DAVISVP2,2013-09-07 11:47:00,
2013-09-07 07:00:00,74.3,71.8,29.95,North,7,0.0,0.0,92,0.00,,,0.00,WUHU216DAVISVP2,2013-09-07 12:00:00,
2013-09-07 07:18:00,73.9,71.8,29.95,East,83,0.0,0.0,93,0.00,,,0.00,WUHU216DAVISVP2,2013-09-07 12:18:00,
2013-09-07 07:30:00,73.9,71.7,29.95,ENE,75,0.0,1.0,93,0.00,,,0.00,WUHU216DAVISVP2,2013-09-07 12:30:00,
2013-09-07 07:48:00,74.4,72.6,29.96,East,83,0.0,1.0,94,0.00,,,0.00,WUHU216DAVISVP2,2013-09-07 12:48:00,
2013-09-07 08:00:00,75.1,73.3,29.96,North,7,0.0,0.0,94,0.00,,,0.00,WUHU216DAVISVP2,2013-09-07 13:00:00,
2013-09-07 08:18:00,75.8,74.0,29.96,ENE,74,0.0,2.4,94,0.00,,,0.00,WUHU216DAVISVP2,2013-09-07 13:18:00,
2013-09-07 08:30:00,76.7,74.2,29.97,NNE,30,0.0,4.0,92,0.00,,,0.00,WUHU216DAVISVP2,2013-09-07 13:30:00,
2013-09-07 08:48:00,77.8,74.7,29.97,NNE,24,0.0,1.2,90,0.00,,,0.00,WUHU216DAVISVP2,2013-09-07 13:48:00,
2013-09-07 09:00:00,79.0,74.8,29.97,ESE,120,0.0,2.0,87,0.00,,,0.00,WUHU216DAVISVP2,2013-09-07 14:00:00,
2013-09-07 09:18:00,79.7,74.9,29.97,ESE,113,1.2,2.0,85,0.00,,,0.00,WUHU216DAVISVP2,2013-09-07 14:18:00,
2013-09-07 09:30:00,81.5,74.4,29.97,SSE,165,1.4,3.0,79,0.00,,,0.00,WUHU216DAVISVP2,2013-09-07 14:30:00,
2013-09-07 09:48:00,83.5,74.7,29.97,SE,124,2.4,3.6,74,0.00,,,0.00,WUHU216DAVISVP2,2013-09-07 14:48:00,
2013-09-07 10:00:00,83.9,73.5,29.97,SE,142,1.4,5.0,71,0.00,,,0.00,WUHU216DAVISVP2,2013-09-07 15:00:00,
2013-09-07 10:18:00,84.4,73.5,29.97,ESE,103,0.0,6.0,69,0.00,,,0.00,WUHU216DAVISVP2,2013-09-07 15:18:00,
2013-09-07 10:30:00,85.4,72.7,29.97,East,97,1.4,5.0,66,0.00,,,0.00,WUHU216DAVISVP2,2013-09-07 15:30:00,
2013-09-07 10:48:00,85.7,72.1,29.97,SE,140,2.4,4.0,63,0.00,,,0.00,WUHU216DAVISVP2,2013-09-07 15:48:00,
2013-09-07 11:00:00,87.5,69.9,29.97,East,97,1.4,6.0,56,0.00,,,0.00,WUHU216DAVISVP2,2013-09-07 16:00:00,
2013-09-07 11:18:00,87.6,71.4,29.98,ESE,107,3.6,5.0,58,0.00,,,0.00,WUHU216DAVISVP2,2013-09-07 16:18:00,
2013-09-07 11:30:00,88.3,72.2,29.97,East,97,2.7,6.0,59,0.00,,,0.00,WUHU216DAVISVP2,2013-09-07 16:30:00,
2013-09-07 11:48:00,89.5,72.7,29.97,NE,41,0.0,6.0,57,0.00,,,0.00,WUHU216DAVISVP2,2013-09-07 16:48:00,
2013-09-07 12:00:00,89.3,70.5,29.96,East,97,1.4,5.0,54,0.00,,,0.00,WUHU216DAVISVP2,2013-09-07 17:00:00,
2013-09-07 12:18:00,91.0,71.9,29.96,East,81,2.4,6.0,53,0.00,,,0.00,WUHU216DAVISVP2,2013-09-07 17:18:00,
2013-09-07 12:30:00,89.9,72.1,29.96,East,97,2.7,7.0,56,0.00,,,0.00,WUHU216DAVISVP2,2013-09-07 17:30:00,
2013-09-07 12:48:00,91.2,70.9,29.94,East,84,0.0,7.2,51,0.00,,,0.00,WUHU216DAVISVP2,2013-09-07 17:48:00,
2013-09-07 13:00:00,91.9,71.2,29.93,SE,142,2.7,7.0,51,0.00,,,0.00,WUHU216DAVISVP2,2013-09-07 18:00:00,
2013-09-07 13:18:00,93.5,70.6,29.93,ENE,65,1.2,8.4,47,0.00,,,0.00,WUHU216DAVISVP2,2013-09-07 18:18:00,
2013-09-07 13:30:00,94.2,71.5,29.92,NNE,30,4.1,9.0,48,0.00,,,0.00,WUHU216DAVISVP2,2013-09-07 18:30:00,
2013-09-07 13:48:00,94.1,70.5,29.92,East,92,1.2,10.8,46,0.00,,,0.00,WUHU216DAVISVP2,2013-09-07 18:48:00,
2013-09-07 14:00:00,94.7,70.7,29.91,SE,142,2.7,9.0,46,0.00,,,0.00,WUHU216DAVISVP2,2013-09-07 19:00:00,
2013-09-07 14:18:00,94.3,70.0,29.90,East,97,0.0,13.2,45,0.00,,,0.00,WUHU216DAVISVP2,2013-09-07 19:18:00,
2013-09-07 14:30:00,93.9,69.3,29.89,East,97,2.7,12.0,45,0.00,,,0.00,WUHU216DAVISVP2,2013-09-07 19:30:00,
2013-09-07 14:48:00,91.9,69.7,29.88,East,92,0.0,6.0,48,0.00,,,0.00,WUHU216DAVISVP2,2013-09-07 19:48:00,
2013-09-07 15:00:00,91.4,69.6,29.87,East,97,2.7,8.0,49,0.00,,,0.00,WUHU216DAVISVP2,2013-09-07 20:00:00,
2013-09-07 15:18:00,93.7,70.8,29.86,SE,137,3.6,8.4,47,0.00,,,0.00,WUHU216DAVISVP2,2013-09-07 20:18:00,
2013-09-07 15:30:00,88.3,71.6,29.87,SE,142,6.8,14.0,58,0.00,,,0.00,WUHU216DAVISVP2,2013-09-07 20:30:00,
2013-09-07 15:48:00,86.3,71.7,29.86,East,91,6.0,21.0,61,0.00,,,0.00,WUHU216DAVISVP2,2013-09-07 20:48:00,
2013-09-07 16:00:00,84.8,70.8,29.87,SE,142,5.4,21.0,63,0.00,,,0.00,WUHU216DAVISVP2,2013-09-07 21:00:00,
2013-09-07 16:18:00,86.3,72.6,29.86,SE,146,3.6,7.2,63,0.00,,,0.00,WUHU216DAVISVP2,2013-09-07 21:18:00,
2013-09-07 16:30:00,90.2,71.3,29.85,SSE,165,4.1,13.0,54,0.00,,,0.00,WUHU216DAVISVP2,2013-09-07 21:30:00,
2013-09-07 16:48:00,91.2,72.1,29.85,SE,139,8.4,13.0,53,0.00,,,0.00,WUHU216DAVISVP2,2013-09-07 21:48:00,
2013-09-07 17:00:00,90.1,70.7,29.85,SE,142,8.1,14.0,53,0.00,,,0.00,WUHU216DAVISVP2,2013-09-07 22:00:00,
2013-09-07 17:18:00,90.8,71.7,29.85,ESE,111,8.4,13.0,53,0.00,,,0.00,WUHU216DAVISVP2,2013-09-07 22:18:00,
2013-09-07 17:30:00,89.9,71.6,29.85,East,97,8.1,13.0,55,0.00,,,0.00,WUHU216DAVISVP2,2013-09-07 22:30:00,
2013-09-07 17:48:00,89.9,72.0,29.84,ESE,108,6.0,9.6,55,0.00,,,0.00,WUHU216DAVISVP2,2013-09-07 22:48:00,
2013-09-07 18:00:00,89.6,70.8,29.85,East,97,5.4,9.0,54,0.00,,,0.00,WUHU216DAVISVP2,2013-09-07 23:00:00,
2013-09-07 18:18:00,89.4,71.5,29.85,ESE,105,7.2,9.0,55,0.00,,,0.00,WUHU216DAVISVP2,2013-09-07 23:18:00,
2013-09-07 18:30:00,89.0,71.3,29.86,East,97,6.8,13.0,56,0.00,,,0.00,WUHU216DAVISVP2,2013-09-07 23:30:00,
2013-09-07 18:48:00,88.8,72.0,29.86,East,97,2.4,9.6,57,0.00,,,0.00,WUHU216DAVISVP2,2013-09-07 23:48:00,
2013-09-07 19:00:00,86.7,71.2,29.87,East,97,5.4,9.0,60,0.00,,,0.00,WUHU216DAVISVP2,2013-09-08 00:00:00,
2013-09-07 19:18:00,85.6,71.0,29.88,ESE,103,3.6,10.8,61,0.00,,,0.00,WUHU216DAVISVP2,2013-09-08 00:18:00,
2013-09-07 19:30:00,85.0,70.0,29.88,East,97,6.8,10.0,61,0.00,,,0.00,WUHU216DAVISVP2,2013-09-08 00:30:00,
2013-09-07 19:48:00,84.2,70.2,29.88,East,89,6.0,7.0,62,0.00,,,0.00,WUHU216DAVISVP2,2013-09-08 00:48:00,
2013-09-07 20:00:00,83.5,70.0,29.89,East,97,2.7,6.0,64,0.00,,,0.00,WUHU216DAVISVP2,2013-09-08 01:00:00,
2013-09-07 20:18:00,83.0,70.4,29.90,SE,124,2.4,4.8,65,0.00,,,0.00,WUHU216DAVISVP2,2013-09-08 01:18:00,
2013-09-07 20:30:00,82.3,70.7,29.90,East,97,0.0,4.0,68,0.00,,,0.00,WUHU216DAVISVP2,2013-09-08 01:30:00,
2013-09-07 20:48:00,81.6,72.4,29.89,ENE,71,0.0,4.8,73,0.00,,,0.00,WUHU216DAVISVP2,2013-09-08 01:48:00,
2013-09-07 21:00:00,80.6,72.7,29.89,East,97,1.4,5.0,77,0.00,,,0.00,WUHU216DAVISVP2,2013-09-08 02:00:00,
2013-09-07 21:18:00,80.0,73.5,29.89,East,79,0.0,3.0,80,0.00,,,0.00,WUHU216DAVISVP2,2013-09-08 02:18:00,
2013-09-07 21:30:00,79.5,73.2,29.90,ENE,75,0.0,3.0,81,0.00,,,0.00,WUHU216DAVISVP2,2013-09-08 02:30:00,
2013-09-07 21:48:00,79.2,73.1,29.89,SE,145,0.0,4.0,81,0.00,,,0.00,WUHU216DAVISVP2,2013-09-08 02:48:00,
2013-09-07 22:00:00,79.7,72.2,29.89,SE,142,1.4,10.0,78,0.00,,,0.00,WUHU216DAVISVP2,2013-09-08 03:00:00,
2013-09-07 22:18:00,79.5,72.6,29.89,SE,137,2.4,5.0,79,0.00,,,0.00,WUHU216DAVISVP2,2013-09-08 03:18:00,
2013-09-07 22:30:00,79.2,72.5,29.90,SE,142,1.4,5.0,80,0.00,,,0.00,WUHU216DAVISVP2,2013-09-08 03:30:00,
2013-09-07 22:48:00,78.8,72.3,29.90,ESE,120,1.2,4.0,80,0.00,,,0.00,WUHU216DAVISVP2,2013-09-08 03:48:00,
2013-09-07 23:00:00,78.5,72.2,29.91,ESE,120,0.0,3.0,81,0.00,,,0.00,WUHU216DAVISVP2,2013-09-08 04:00:00,
2013-09-07 23:18:00,78.3,72.5,29.91,ESE,119,0.0,1.2,82,0.00,,,0.00,WUHU216DAVISVP2,2013-09-08 04:18:00,
2013-09-07 23:30:00,78.0,72.1,29.91,ESE,120,0.0,1.0,82,0.00,,,0.00,WUHU216DAVISVP2,2013-09-08 04:30:00,
2013-09-07 23:48:00,77.5,72.1,29.91,ESE,119,0.0,0.0,83,0.00,,,0.00,WUHU216DAVISVP2,2013-09-08 04:48:00,